Stockton, Indiana
Current Conditions -  °F | °C
As of 8:55 PM on Monday 24 Nov 2014 (Local Time) from KDCY Reporting Station
Overcast Overcast  
Wind Chill: 34°   Ceiling: 5500
Heat Index: 39°   Visibility: 10mi
Dew Point: 32°   Wind: 8mph
Humidity: 75%   Direction: 270°W
Pressure: 29.92"   Gusts: NA
Location:  39.0608°N, 87.1852°W
Report Text: KDCY 250155Z AUTO 27007KT 10SM BKN055 OVC085 04/00 A2992 RMK AO2 T00401001
Loading
Personal Weather Stations






























Interactive Weather Map New forecast layout! Learn more

10-Day Weather Forecast

Advertisements
Track Severe Weather on mobile